Weather at Billund Airport

Public forecast

Using degrees Celsius for public forecast. Weather courtesy of forecast.io.

Current aviation weather report (METAR) for Billund Airport

2024/05/26 15:20 (retrieved 37 minutes ago)

EKBI 261520Z 09007KT 060V120 9999 -SHRA FEW048CB BKN050 18/15 Q1017

Aviation forecast (TAF) for Billund Airport

2024/05/26 12:31 (retrieved 3 hours ago)

TAF EKBI 261107Z 2612/2712 12006KT 9999 SCT025 TEMPO 2612/2622 SHRA BKN020CB PROB40 TEMPO 2612/2618 VRB15G25KT 2500 +TSRA TEMPO 2622/2705 3000 -SHRA BR BKN006 FEW020CB TEMPO 2705/2710 4000 SHRA BKN006 BKN020CB BECMG 2706/2709 22010KT